createdAt,value
2023-04-02T00:01:51.712Z,46.88
2023-04-02T00:04:23.354Z,46.91
2023-04-02T00:06:54.536Z,47.35
2023-04-02T00:09:32.110Z,46.76
2023-04-02T00:12:00.492Z,46.95
2023-04-02T00:14:33.447Z,46.95
2023-04-02T00:17:01.984Z,46.82
2023-04-02T00:19:31.010Z,46.87
2023-04-02T00:21:58.124Z,47.05
2023-04-02T00:24:24.898Z,47.00
2023-04-02T00:26:53.063Z,47.19
2023-04-02T00:29:20.256Z,46.81
2023-04-02T00:31:53.926Z,46.81
2023-04-02T00:34:32.823Z,46.86
2023-04-02T00:36:59.874Z,46.99
2023-04-02T00:39:27.854Z,46.68
2023-04-02T00:42:04.762Z,46.79
2023-04-02T00:44:39.070Z,47.02
2023-04-02T00:47:26.993Z,47.00
2023-04-02T00:50:16.073Z,46.76
2023-04-02T00:52:43.533Z,47.04
2023-04-02T00:55:37.398Z,47.16
2023-04-02T00:58:05.128Z,47.14
2023-04-02T01:00:36.151Z,47.04
2023-04-02T01:03:13.176Z,46.98
2023-04-02T01:05:40.135Z,46.90
2023-04-02T01:08:19.341Z,47.02
2023-04-02T01:10:49.105Z,46.99
2023-04-02T01:13:40.083Z,46.87
2023-04-02T01:16:42.319Z,46.92
2023-04-02T01:19:26.047Z,46.89
2023-04-02T01:22:12.080Z,47.08
2023-04-02T01:24:39.132Z,47.25
2023-04-02T01:27:30.055Z,47.09
2023-04-02T01:29:57.987Z,47.25
2023-04-02T01:32:26.972Z,47.13
2023-04-02T01:34:54.105Z,47.11
2023-04-02T01:37:32.303Z,46.84
2023-04-02T01:40:21.512Z,47.09
2023-04-02T01:43:22.920Z,47.19
2023-04-02T01:45:50.237Z,47.13
2023-04-02T01:48:19.871Z,46.98
2023-04-02T01:50:49.780Z,46.91
2023-04-02T01:53:17.051Z,46.96
2023-04-02T01:55:47.060Z,47.01
2023-04-02T01:58:14.272Z,47.08
2023-04-02T02:00:45.796Z,46.94
2023-04-02T02:03:12.929Z,46.99
2023-04-02T02:05:40.061Z,47.09
2023-04-02T02:08:08.720Z,47.02
2023-04-02T02:10:36.753Z,46.88
2023-04-02T02:13:03.754Z,47.12
2023-04-02T02:15:32.997Z,46.92
2023-04-02T02:18:03.123Z,46.95
2023-04-02T02:20:30.324Z,47.34
2023-04-02T02:22:57.465Z,46.86
2023-04-02T02:25:26.823Z,46.90
2023-04-02T02:28:29.040Z,46.88
2023-04-02T02:31:01.359Z,46.92
2023-04-02T02:33:39.492Z,47.13
2023-04-02T02:36:29.421Z,47.13
2023-04-02T02:38:57.308Z,46.98
2023-04-02T02:41:24.698Z,47.21
2023-04-02T02:43:54.937Z,46.96
2023-04-02T02:46:22.393Z,47.16
2023-04-02T02:48:49.300Z,47.02
2023-04-02T02:51:23.647Z,47.16
2023-04-02T02:53:52.640Z,47.09
2023-04-02T02:56:19.691Z,47.17
2023-04-02T02:58:46.410Z,47.19
2023-04-02T03:01:13.556Z,47.09
2023-04-02T03:03:40.774Z,46.92
2023-04-02T03:06:09.732Z,46.98
2023-04-02T03:08:54.127Z,47.20
2023-04-02T03:11:40.991Z,47.27
2023-04-02T03:14:16.736Z,47.34
2023-04-02T03:16:49.253Z,47.27
2023-04-02T03:19:28.307Z,47.06
2023-04-02T03:22:03.009Z,47.53
2023-04-02T03:24:37.049Z,47.08
2023-04-02T03:27:23.796Z,47.32
2023-04-02T03:30:15.569Z,47.21
2023-04-02T03:32:42.694Z,47.14
2023-04-02T03:35:35.728Z,47.17
2023-04-02T03:38:20.265Z,47.16
2023-04-02T03:41:03.085Z,47.21
2023-04-02T03:43:58.398Z,47.22
2023-04-02T03:46:28.482Z,47.15
2023-04-02T03:48:57.744Z,47.09
2023-04-02T03:51:28.864Z,47.46
2023-04-02T03:53:56.403Z,47.12
2023-04-02T03:56:31.765Z,47.00
2023-04-02T03:59:07.856Z,47.10
2023-04-02T04:01:50.292Z,47.26
2023-04-02T04:04:18.169Z,47.21
2023-04-02T04:06:45.755Z,47.03
2023-04-02T04:09:35.498Z,47.40
2023-04-02T04:12:07.924Z,47.40
2023-04-02T04:14:37.304Z,47.32
2023-04-02T04:17:09.436Z,47.44
2023-04-02T04:19:55.034Z,47.20
2023-04-02T04:22:34.070Z,47.29
2023-04-02T04:25:03.425Z,47.38
2023-04-02T04:27:48.316Z,47.57
2023-04-02T04:30:27.315Z,47.47
2023-04-02T04:32:58.245Z,47.38
2023-04-02T04:35:27.031Z,47.30
2023-04-02T04:38:27.765Z,47.34
2023-04-02T04:40:56.877Z,47.37
2023-04-02T04:43:38.743Z,47.53
2023-04-02T04:46:08.720Z,47.83
2023-04-02T04:48:38.922Z,47.15
2023-04-02T04:51:09.091Z,47.64
2023-04-02T04:53:41.017Z,48.07
2023-04-02T04:56:18.593Z,48.06
2023-04-02T04:59:21.992Z,48.08
2023-04-02T05:02:19.307Z,48.62
2023-04-02T05:04:50.828Z,48.86
2023-04-02T05:07:29.093Z,49.04
2023-04-02T05:10:02.752Z,48.95
2023-04-02T05:12:35.443Z,48.75
2023-04-02T05:15:37.887Z,49.11
2023-04-02T05:18:23.463Z,49.25
2023-04-02T05:21:20.978Z,49.09
2023-04-02T05:23:58.887Z,49.00
2023-04-02T05:26:30.591Z,49.24
2023-04-02T05:29:01.550Z,49.37
2023-04-02T05:31:39.505Z,49.44
2023-04-02T05:34:06.674Z,49.39
2023-04-02T05:36:33.515Z,49.56
2023-04-02T05:39:00.647Z,49.29
2023-04-02T05:41:36.962Z,49.43
2023-04-02T05:44:16.496Z,49.17
2023-04-02T05:46:49.991Z,49.34
2023-04-02T05:49:31.350Z,49.09
2023-04-02T05:52:00.104Z,48.98
2023-04-02T05:54:39.482Z,49.01
2023-04-02T05:57:11.940Z,49.36
2023-04-02T05:59:43.949Z,49.08
2023-04-02T06:02:22.847Z,49.15
2023-04-02T06:05:12.946Z,48.66
2023-04-02T06:07:59.162Z,48.60
2023-04-02T06:10:28.662Z,48.49
2023-04-02T06:13:03.486Z,48.73
2023-04-02T06:15:31.078Z,48.64
2023-04-02T06:18:22.081Z,48.67
2023-04-02T06:20:49.195Z,48.56
2023-04-02T06:23:30.931Z,48.39
2023-04-02T06:26:22.410Z,48.51
2023-04-02T06:28:56.173Z,48.61
2023-04-02T06:31:58.742Z,48.67
2023-04-02T06:34:26.119Z,48.28
2023-04-02T06:37:15.107Z,48.58
2023-04-02T06:39:41.895Z,48.50
2023-04-02T06:42:13.867Z,48.87
2023-04-02T06:44:40.691Z,48.59
2023-04-02T06:47:20.020Z,48.40
2023-04-02T06:50:07.775Z,48.47
2023-04-02T06:52:37.603Z,48.39
2023-04-02T06:55:34.117Z,48.59
2023-04-02T06:58:01.501Z,48.59
2023-04-02T07:00:34.595Z,48.30
2023-04-02T07:03:02.162Z,48.37
2023-04-02T07:05:28.985Z,48.29
2023-04-02T07:07:56.260Z,48.16
2023-04-02T07:10:23.043Z,48.28
2023-04-02T07:12:50.212Z,48.32
2023-04-02T07:15:17.477Z,48.41
2023-04-02T07:17:44.870Z,48.57
2023-04-02T07:20:31.277Z,48.16
2023-04-02T07:22:58.481Z,48.20
2023-04-02T07:25:25.597Z,48.32
2023-04-02T07:27:52.823Z,48.47
2023-04-02T07:30:19.746Z,48.39
2023-04-02T07:32:47.140Z,48.29
2023-04-02T07:35:14.024Z,48.13
2023-04-02T07:37:41.231Z,47.83
2023-04-02T07:40:19.091Z,48.01
2023-04-02T07:42:46.302Z,47.99
2023-04-02T07:45:13.488Z,48.08
2023-04-02T07:47:40.751Z,48.28
2023-04-02T07:50:08.316Z,47.85
2023-04-02T07:52:42.697Z,48.19
2023-04-02T07:55:13.735Z,48.04
2023-04-02T07:57:43.664Z,47.88
2023-04-02T08:00:12.238Z,47.89
2023-04-02T08:02:39.390Z,47.75
2023-04-02T08:05:06.889Z,47.73
2023-04-02T08:07:34.008Z,47.57
2023-04-02T08:10:00.897Z,47.93
2023-04-02T08:12:27.992Z,47.95
2023-04-02T08:14:54.742Z,48.11
2023-04-02T08:17:22.029Z,47.75
2023-04-02T08:19:55.204Z,47.61
2023-04-02T08:22:22.589Z,47.71
2023-04-02T08:24:49.358Z,47.61
2023-04-02T08:27:16.728Z,47.65
2023-04-02T08:29:43.496Z,47.76
2023-04-02T08:32:12.045Z,47.26
2023-04-02T08:34:38.784Z,47.51
2023-04-02T08:37:05.965Z,47.70
2023-04-02T08:39:34.314Z,47.66
2023-04-02T08:42:12.803Z,47.62
2023-04-02T08:45:25.738Z,47.89
2023-04-02T08:47:55.434Z,47.78
2023-04-02T08:50:31.073Z,47.75
2023-04-02T08:52:59.183Z,47.59
2023-04-02T08:55:37.216Z,47.57
2023-04-02T08:58:28.831Z,47.71
2023-04-02T09:00:55.905Z,48.18
2023-04-02T09:03:35.776Z,48.53
2023-04-02T09:06:02.824Z,48.58
2023-04-02T09:08:30.982Z,48.56
2023-04-02T09:11:08.193Z,48.01
2023-04-02T09:13:37.720Z,47.82
2023-04-02T09:16:08.999Z,47.88
2023-04-02T09:18:36.271Z,47.82
2023-04-02T09:21:23.383Z,48.02
2023-04-02T09:23:50.663Z,47.92
2023-04-02T09:26:22.904Z,47.80
2023-04-02T09:29:03.460Z,47.92
2023-04-02T09:31:41.635Z,48.11
2023-04-02T09:34:31.697Z,48.00
2023-04-02T09:37:07.554Z,47.86
2023-04-02T09:39:35.602Z,47.75
2023-04-02T09:42:07.783Z,47.72
2023-04-02T09:44:35.139Z,47.79
2023-04-02T09:47:07.091Z,47.83
2023-04-02T09:49:35.619Z,47.87
2023-04-02T09:52:07.020Z,47.68
2023-04-02T09:54:41.517Z,47.53
2023-04-02T09:57:38.819Z,47.72
2023-04-02T10:00:30.416Z,47.73
2023-04-02T10:03:23.600Z,47.88
2023-04-02T10:06:04.523Z,47.97
2023-04-02T10:08:31.425Z,47.87
2023-04-02T10:11:00.589Z,48.10
2023-04-02T10:13:46.347Z,47.80
2023-04-02T10:16:15.608Z,48.26
2023-04-02T10:18:58.602Z,48.09
2023-04-02T10:21:27.481Z,48.14
2023-04-02T10:23:55.061Z,48.18
2023-04-02T10:26:22.144Z,47.99
2023-04-02T10:29:25.319Z,48.44
2023-04-02T10:32:31.600Z,48.44
2023-04-02T10:35:05.769Z,48.05
2023-04-02T10:37:54.434Z,48.23
2023-04-02T10:40:23.502Z,48.05
2023-04-02T10:43:07.224Z,48.51
2023-04-02T10:46:09.473Z,48.84
2023-04-02T10:48:52.799Z,48.69
2023-04-02T10:51:41.563Z,48.18
2023-04-02T10:54:38.626Z,48.10
2023-04-02T10:57:10.667Z,48.17
2023-04-02T10:59:40.332Z,48.33
2023-04-02T11:02:32.038Z,48.56
2023-04-02T11:05:02.444Z,48.74
2023-04-02T11:07:29.939Z,48.43
2023-04-02T11:09:57.529Z,48.57
2023-04-02T11:12:41.896Z,48.45
2023-04-02T11:15:19.187Z,48.60
2023-04-02T11:17:46.159Z,48.49
2023-04-02T11:20:48.621Z,48.34
2023-04-02T11:23:18.432Z,48.33
2023-04-02T11:25:45.697Z,48.37
2023-04-02T11:28:32.799Z,48.07
2023-04-02T11:31:00.308Z,48.33
2023-04-02T11:33:39.344Z,48.05
2023-04-02T11:36:53.054Z,47.96
2023-04-02T11:39:51.087Z,48.18
2023-04-02T11:42:18.138Z,48.25
2023-04-02T11:44:45.329Z,47.98
2023-04-02T11:47:25.253Z,47.69
2023-04-02T11:49:55.383Z,48.03
2023-04-02T11:52:34.094Z,48.30
2023-04-02T11:55:15.589Z,47.97
2023-04-02T11:58:23.940Z,48.23
2023-04-02T12:00:57.499Z,48.28
2023-04-02T12:03:42.217Z,48.11
2023-04-02T12:06:20.925Z,48.04
2023-04-02T12:09:14.873Z,47.90
2023-04-02T12:11:41.810Z,47.83
2023-04-02T12:14:47.452Z,47.62
2023-04-02T12:17:19.583Z,47.56
2023-04-02T12:19:51.594Z,47.81
2023-04-02T12:22:22.725Z,47.70
2023-04-02T12:24:50.135Z,47.63
2023-04-02T12:27:22.552Z,47.89
2023-04-02T12:29:51.211Z,47.64
2023-04-02T12:32:22.112Z,47.76
2023-04-02T12:34:49.231Z,47.59
2023-04-02T12:37:23.970Z,47.65
2023-04-02T12:40:05.578Z,47.35
2023-04-02T12:42:34.143Z,47.52
2023-04-02T12:45:01.603Z,47.62
2023-04-02T12:47:28.603Z,47.38
2023-04-02T12:49:56.915Z,47.72
2023-04-02T12:52:28.572Z,47.53
2023-04-02T12:55:00.455Z,47.50
2023-04-02T12:57:30.377Z,47.64
2023-04-02T13:00:24.688Z,47.47
2023-04-02T13:02:52.889Z,47.37
2023-04-02T13:05:41.225Z,47.40
2023-04-02T13:08:39.022Z,47.53
2023-04-02T13:11:06.351Z,47.50
2023-04-02T13:13:37.419Z,47.40
2023-04-02T13:16:25.177Z,47.54
2023-04-02T13:18:52.116Z,47.26
2023-04-02T13:21:19.639Z,47.10
2023-04-02T13:23:46.601Z,47.03
2023-04-02T13:26:21.988Z,47.24
2023-04-02T13:28:56.522Z,47.54
2023-04-02T13:31:23.835Z,47.33
2023-04-02T13:33:50.646Z,47.42
2023-04-02T13:36:17.862Z,47.26
2023-04-02T13:38:44.636Z,47.32
2023-04-02T13:41:22.871Z,47.21
2023-04-02T13:43:53.509Z,47.43
2023-04-02T13:46:26.412Z,47.15
2023-04-02T13:48:54.063Z,47.24
2023-04-02T13:51:27.412Z,47.36
2023-04-02T13:53:55.565Z,47.27
2023-04-02T13:56:24.604Z,47.10
2023-04-02T13:58:51.885Z,46.83
2023-04-02T14:01:20.781Z,47.18
2023-04-02T14:03:47.629Z,47.41
2023-04-02T14:06:36.712Z,47.40
2023-04-02T14:09:05.637Z,47.35
2023-04-02T14:11:51.454Z,47.34
2023-04-02T14:14:40.137Z,46.99
2023-04-02T14:17:16.272Z,47.17
2023-04-02T14:19:49.095Z,47.08
2023-04-02T14:22:26.450Z,47.15
2023-04-02T14:25:15.389Z,46.87
2023-04-02T14:28:15.865Z,46.99
2023-04-02T14:30:58.473Z,46.91
2023-04-02T14:33:37.730Z,47.10
2023-04-02T14:36:15.920Z,47.28
2023-04-02T14:38:56.180Z,47.16
2023-04-02T14:41:33.742Z,47.00
2023-04-02T14:44:03.369Z,46.87
2023-04-02T14:46:31.420Z,46.96
2023-04-02T14:49:10.317Z,46.86
2023-04-02T14:51:43.522Z,46.72
2023-04-02T14:54:27.672Z,46.91
2023-04-02T14:56:57.466Z,46.97
2023-04-02T14:59:44.334Z,46.98
2023-04-02T15:02:22.421Z,46.85
2023-04-02T15:05:02.208Z,46.70
2023-04-02T15:07:33.644Z,46.68
2023-04-02T15:10:29.327Z,46.92
2023-04-02T15:12:56.813Z,46.84
2023-04-02T15:15:43.029Z,46.87
2023-04-02T15:18:13.798Z,46.51
2023-04-02T15:20:53.969Z,46.66
2023-04-02T15:23:32.942Z,46.75
2023-04-02T15:26:19.761Z,46.38
2023-04-02T15:28:51.773Z,46.45
2023-04-02T15:31:18.932Z,46.40
2023-04-02T15:33:53.664Z,46.49
2023-04-02T15:36:48.350Z,46.82
2023-04-02T15:39:22.109Z,46.35
2023-04-02T15:42:18.025Z,46.51
2023-04-02T15:44:52.817Z,46.72
2023-04-02T15:47:22.849Z,46.74
2023-04-02T15:50:15.869Z,46.84
2023-04-02T15:53:01.105Z,46.91
2023-04-02T15:55:41.906Z,46.56
2023-04-02T15:58:15.487Z,46.57
2023-04-02T16:01:11.714Z,46.62
2023-04-02T16:04:03.930Z,46.51
2023-04-02T16:06:32.496Z,46.38
2023-04-02T16:09:17.539Z,46.99
2023-04-02T16:11:44.451Z,46.50
2023-04-02T16:14:30.680Z,46.48
2023-04-02T16:17:17.544Z,46.46
2023-04-02T16:19:53.142Z,46.40
2023-04-02T16:22:29.051Z,46.81
2023-04-02T16:25:20.643Z,46.88
2023-04-02T16:28:09.263Z,46.54
2023-04-02T16:30:58.550Z,47.11
2023-04-02T16:33:34.447Z,46.75
2023-04-02T16:36:28.457Z,46.84
2023-04-02T16:39:01.694Z,46.59
2023-04-02T16:41:39.872Z,46.66
2023-04-02T16:44:39.955Z,46.67
2023-04-02T16:47:13.191Z,46.65
2023-04-02T16:49:48.998Z,46.71
2023-04-02T16:52:58.018Z,46.59
2023-04-02T16:55:32.832Z,46.49
2023-04-02T16:58:12.077Z,46.76
2023-04-02T17:00:56.289Z,46.75
2023-04-02T17:03:46.741Z,46.58
2023-04-02T17:06:19.705Z,46.55
2023-04-02T17:08:54.589Z,46.62
2023-04-02T17:11:24.362Z,46.80
2023-04-02T17:14:06.250Z,46.57
2023-04-02T17:16:46.342Z,46.79
2023-04-02T17:19:14.915Z,46.87
2023-04-02T17:21:43.548Z,46.88
2023-04-02T17:24:14.330Z,46.76
2023-04-02T17:26:41.164Z,47.04
2023-04-02T17:29:09.725Z,46.92
2023-04-02T17:31:37.447Z,47.17
2023-04-02T17:34:17.698Z,46.87
2023-04-02T17:36:51.178Z,46.90
2023-04-02T17:39:22.426Z,46.75
2023-04-02T17:41:53.771Z,46.57
2023-04-02T17:44:43.911Z,46.84
2023-04-02T17:47:32.598Z,46.88
2023-04-02T17:50:12.550Z,46.80
2023-04-02T17:52:53.371Z,47.00
2023-04-02T17:55:27.271Z,46.95
2023-04-02T17:58:12.829Z,46.96
2023-04-02T18:00:58.695Z,46.96
2023-04-02T18:03:37.679Z,47.04
2023-04-02T18:06:08.784Z,47.15
2023-04-02T18:08:52.512Z,47.12
2023-04-02T18:11:31.866Z,46.98
2023-04-02T18:14:41.982Z,47.40
2023-04-02T18:17:12.105Z,47.29
2023-04-02T18:19:42.114Z,47.20
2023-04-02T18:22:51.113Z,46.78
2023-04-02T18:25:29.748Z,47.00
2023-04-02T18:28:04.819Z,46.92
2023-04-02T18:30:41.675Z,46.95
2023-04-02T18:33:33.446Z,46.59
2023-04-02T18:38:52.585Z,47.32
2023-04-02T18:41:56.447Z,46.83
2023-04-02T18:44:43.499Z,46.85
2023-04-02T18:47:19.975Z,47.05
2023-04-02T18:49:51.911Z,47.10
2023-04-02T18:52:18.834Z,47.09
2023-04-02T18:54:53.268Z,46.91
2023-04-02T18:57:24.030Z,47.11
2023-04-02T19:00:02.452Z,46.93
2023-04-02T19:02:42.995Z,46.92
2023-04-02T19:05:26.348Z,47.12
2023-04-02T19:07:58.227Z,47.12
2023-04-02T19:10:33.484Z,46.84
2023-04-02T19:13:00.559Z,47.11
2023-04-02T19:15:40.500Z,47.04
2023-04-02T19:18:39.087Z,47.13
2023-04-02T19:21:39.137Z,47.03
2023-04-02T19:24:30.642Z,47.03
2023-04-02T19:27:23.882Z,47.22
2023-04-02T19:30:21.762Z,47.11
2023-04-02T19:33:33.996Z,47.15
2023-04-02T19:36:08.242Z,47.06
2023-04-02T19:39:00.829Z,46.97
2023-04-02T19:41:49.874Z,47.37
2023-04-02T19:44:17.100Z,47.29
2023-04-02T19:46:43.909Z,47.29
2023-04-02T19:49:16.960Z,47.00
2023-04-02T19:51:43.986Z,47.04
2023-04-02T19:54:11.275Z,47.12
2023-04-02T19:56:38.077Z,47.42
2023-04-02T19:59:17.036Z,47.30
2023-04-02T20:01:44.787Z,47.41
2023-04-02T20:04:11.910Z,47.44
2023-04-02T20:06:38.754Z,47.30
2023-04-02T20:09:07.534Z,47.54
2023-04-02T20:11:34.926Z,47.24
2023-04-02T20:14:02.059Z,47.40
2023-04-02T20:16:28.863Z,47.29
2023-04-02T20:18:56.491Z,47.37
2023-04-02T20:21:23.302Z,47.40
2023-04-02T20:23:54.405Z,47.31
2023-04-02T20:26:22.290Z,47.36
2023-04-02T20:28:49.400Z,47.19
2023-04-02T20:31:17.390Z,47.27
2023-04-02T20:33:44.789Z,47.13
2023-04-02T20:36:16.290Z,47.12
2023-04-02T20:38:43.528Z,47.13
2023-04-02T20:41:10.388Z,47.19
2023-04-02T20:43:40.345Z,47.25
2023-04-02T20:46:10.773Z,47.20
2023-04-02T20:48:38.898Z,46.97
2023-04-02T20:51:06.789Z,47.24
2023-04-02T20:53:37.248Z,47.14
2023-04-02T20:56:10.205Z,47.31
2023-04-02T20:58:37.753Z,47.27
2023-04-02T21:01:07.636Z,47.08
2023-04-02T21:03:34.765Z,47.00
2023-04-02T21:06:01.596Z,47.20
2023-04-02T21:08:28.771Z,47.07
2023-04-02T21:11:02.074Z,47.10
2023-04-02T21:13:30.919Z,47.14
2023-04-02T21:15:57.929Z,47.36
2023-04-02T21:18:25.122Z,47.15
2023-04-02T21:20:59.177Z,47.48
2023-04-02T21:23:26.686Z,47.40
2023-04-02T21:25:58.040Z,47.44
2023-04-02T21:28:25.446Z,47.58
2023-04-02T21:30:52.464Z,47.54
2023-04-02T21:33:19.602Z,47.40
2023-04-02T21:35:46.392Z,47.63
2023-04-02T21:38:13.499Z,47.58
2023-04-02T21:40:40.292Z,47.41
2023-04-02T21:43:07.324Z,47.57
2023-04-02T21:45:34.354Z,47.69
2023-04-02T21:48:01.652Z,47.34
2023-04-02T21:50:28.588Z,47.31
2023-04-02T21:52:55.899Z,47.26
2023-04-02T21:55:22.632Z,47.59
2023-04-02T21:57:49.766Z,47.51
2023-04-02T22:00:16.764Z,47.69
2023-04-02T22:02:43.871Z,47.41
2023-04-02T22:05:10.707Z,47.40
2023-04-02T22:07:37.818Z,47.53
2023-04-02T22:10:04.816Z,47.36
2023-04-02T22:12:31.897Z,47.60
2023-04-02T22:14:58.656Z,47.27
2023-04-02T22:17:25.702Z,47.48
2023-04-02T22:19:52.432Z,47.25
2023-04-02T22:22:19.492Z,47.53
2023-04-02T22:24:46.408Z,47.46
2023-04-02T22:27:13.453Z,47.39
2023-04-02T22:29:40.199Z,47.38
2023-04-02T22:32:07.259Z,47.16
2023-04-02T22:34:34.050Z,47.31
2023-04-02T22:37:01.007Z,47.17
2023-04-02T22:39:27.833Z,46.96
2023-04-02T22:41:54.906Z,47.14
2023-04-02T22:44:21.735Z,47.19
2023-04-02T22:46:48.789Z,47.11
2023-04-02T22:49:19.364Z,47.07
2023-04-02T22:51:46.872Z,47.09
2023-04-02T22:54:13.759Z,47.06
2023-04-02T22:56:41.174Z,47.13
2023-04-02T22:59:07.920Z,47.12
2023-04-02T23:01:35.444Z,47.00
2023-04-02T23:04:02.230Z,47.14
2023-04-02T23:06:29.467Z,47.22
2023-04-02T23:08:56.528Z,47.16
2023-04-02T23:11:25.924Z,47.40
2023-04-02T23:13:53.863Z,47.11
2023-04-02T23:16:21.399Z,47.25
2023-04-02T23:18:48.386Z,47.17
2023-04-02T23:21:16.527Z,47.07
2023-04-02T23:23:45.365Z,46.99
2023-04-02T23:26:16.945Z,46.91
2023-04-02T23:28:43.759Z,46.89
2023-04-02T23:31:21.528Z,47.19
2023-04-02T23:33:48.580Z,47.24
2023-04-02T23:36:20.594Z,47.42
2023-04-02T23:38:47.514Z,47.20
2023-04-02T23:41:15.407Z,47.01
2023-04-02T23:43:42.294Z,47.36
2023-04-02T23:46:09.360Z,47.10
2023-04-02T23:48:36.212Z,47.01
2023-04-02T23:51:03.393Z,47.15
2023-04-02T23:53:30.192Z,47.17
2023-04-02T23:55:57.399Z,47.10
2023-04-02T23:58:24.179Z,46.97
